createdAt,value
2016-02-26T00:00:08.857Z,1.43
2016-02-26T00:01:08.859Z,1.34
2016-02-26T00:02:08.878Z,1.43
2016-02-26T00:03:08.865Z,1.27
2016-02-26T00:04:08.852Z,1.42
2016-02-26T00:05:08.854Z,1.38
2016-02-26T00:06:08.857Z,1.43
2016-02-26T00:07:08.860Z,1.4
2016-02-26T00:08:08.862Z,1.46
2016-02-26T00:09:08.850Z,1.45
2016-02-26T00:10:08.867Z,1.48
2016-02-26T00:11:08.855Z,1.43
2016-02-26T00:12:08.889Z,1.46
2016-02-26T00:13:08.845Z,1.46
2016-02-26T00:14:08.863Z,1.43
2016-02-26T00:15:08.882Z,1.45
2016-02-26T00:16:08.884Z,1.43
2016-02-26T00:17:08.840Z,1.38
2016-02-26T00:18:08.842Z,1.38
2016-02-26T00:19:08.845Z,1.42
2016-02-26T00:20:08.848Z,1.36
2016-02-26T00:21:08.851Z,1.4
2016-02-26T00:22:08.869Z,1.46
2016-02-26T00:23:08.841Z,1.4
2016-02-26T00:24:08.843Z,1.48
2016-02-26T00:25:08.861Z,1.48
2016-02-26T00:26:08.849Z,1.38
2016-02-26T00:27:08.835Z,1.38
2016-02-26T00:28:08.870Z,1.4
2016-02-26T00:29:08.841Z,1.38
2016-02-26T00:30:08.843Z,1.3
2016-02-26T00:31:08.862Z,1.32
2016-02-26T00:32:08.833Z,1.34
2016-02-26T00:33:08.899Z,1.3
2016-02-26T00:34:08.854Z,1.28
2016-02-26T00:35:08.841Z,1.25
2016-02-26T00:36:08.844Z,1.32
2016-02-26T00:37:08.862Z,1.3
2016-02-26T00:38:08.834Z,1.36
2016-02-26T00:39:08.851Z,1.31
2016-02-26T00:40:08.839Z,1.3
2016-02-26T00:41:08.842Z,1.32
2016-02-26T00:42:08.860Z,1.3
2016-02-26T00:43:08.831Z,1.31
2016-02-26T00:44:08.834Z,1.32
2016-02-26T00:45:08.853Z,1.32
2016-02-26T00:46:08.840Z,1.31
2016-02-26T00:47:08.842Z,1.31
2016-02-26T00:48:08.845Z,1.18
2016-02-26T00:49:08.847Z,1.18
2016-02-26T00:50:08.835Z,1.25
2016-02-26T00:51:08.838Z,1.2
2016-02-26T00:52:08.841Z,1.25
2016-02-26T00:53:08.828Z,1.3
2016-02-26T00:54:08.830Z,1.25
2016-02-26T00:55:08.833Z,1.28
2016-02-26T00:56:08.866Z,1.14
2016-02-26T00:57:08.838Z,1.31
2016-02-26T00:58:08.841Z,1.3
2016-02-26T00:59:08.828Z,1.3
2016-02-26T01:00:08.831Z,1.28
2016-02-26T01:01:08.833Z,1.32
2016-02-26T01:02:08.835Z,1.28
2016-02-26T01:03:08.838Z,1.28
2016-02-26T01:04:08.842Z,1.27
2016-02-26T01:05:08.829Z,1.27
2016-02-26T01:06:08.832Z,1.24
2016-02-26T01:07:08.818Z,1.21
2016-02-26T01:08:08.821Z,1.25
2016-02-26T01:09:08.839Z,1.25
2016-02-26T01:10:08.826Z,1.18
2016-02-26T01:11:08.829Z,1.24
2016-02-26T01:12:08.804Z,1.21
2016-02-26T01:13:08.795Z,1.21
2016-02-26T01:14:08.785Z,1.2
2016-02-26T01:15:08.776Z,1.27
2016-02-26T01:16:08.782Z,1.2
2016-02-26T01:17:08.780Z,1.24
2016-02-26T01:18:08.762Z,1.18
2016-02-26T01:19:08.746Z,1.22
2016-02-26T01:20:08.744Z,1.21
2016-02-26T01:21:08.742Z,1.21
2016-02-26T01:22:08.744Z,1.2
2016-02-26T01:23:08.745Z,1.3
2016-02-26T01:24:08.746Z,1.22
2016-02-26T01:25:08.731Z,1.14
2016-02-26T01:26:08.732Z,1.21
2016-02-26T01:27:08.734Z,1.24
2016-02-26T01:28:08.736Z,1.18
2016-02-26T01:29:08.738Z,1.22
2016-02-26T01:30:08.725Z,1.2
2016-02-26T01:31:08.773Z,1.2
2016-02-26T01:32:08.729Z,1.2
2016-02-26T01:33:08.732Z,1.22
2016-02-26T01:34:08.718Z,1.21
2016-02-26T01:35:08.722Z,1.18
2016-02-26T01:36:08.724Z,1.25
2016-02-26T01:37:08.727Z,1.16
2016-02-26T01:38:08.729Z,1.22
2016-02-26T01:39:08.748Z,1.21
2016-02-26T01:40:08.735Z,1.21
2016-02-26T01:41:08.722Z,1.2
2016-02-26T01:42:08.740Z,1.2
2016-02-26T01:43:08.727Z,1.24
2016-02-26T01:44:08.715Z,1.22
2016-02-26T01:45:08.717Z,1.18
2016-02-26T01:46:08.720Z,1.18
2016-02-26T01:47:08.723Z,1.2
2016-02-26T01:48:08.741Z,1.22
2016-02-26T01:49:08.712Z,1.13
2016-02-26T01:50:08.731Z,1.16
2016-02-26T01:51:08.717Z,1.13
2016-02-26T01:52:08.720Z,1.14
2016-02-26T01:53:08.723Z,1.07
2016-02-26T01:54:08.726Z,1.1
2016-02-26T01:55:08.712Z,1.1
2016-02-26T01:56:08.731Z,1.1
2016-02-26T01:57:08.734Z,1.04
2016-02-26T01:58:08.721Z,1.1
2016-02-26T01:59:08.723Z,1.1
2016-02-26T02:00:08.711Z,1.09
2016-02-26T02:01:08.713Z,1.14
2016-02-26T02:02:08.716Z,1.03
2016-02-26T02:03:08.703Z,1.09
2016-02-26T02:04:08.705Z,0.99
2016-02-26T02:05:08.708Z,1.04
2016-02-26T02:06:08.711Z,1.02
2016-02-26T02:07:08.714Z,1.07
2016-02-26T02:08:08.732Z,0.99
2016-02-26T02:09:08.750Z,1.02
2016-02-26T02:10:08.721Z,1.04
2016-02-26T02:11:08.725Z,0.94
2016-02-26T02:12:08.712Z,1
2016-02-26T02:13:08.715Z,1.04
2016-02-26T02:14:08.717Z,0.95
2016-02-26T02:15:08.704Z,1.06
2016-02-26T02:16:08.707Z,0.95
2016-02-26T02:17:08.709Z,0.95
2016-02-26T02:18:08.712Z,0.96
2016-02-26T02:19:08.715Z,0.86
2016-02-26T02:20:08.701Z,0.89
2016-02-26T02:21:08.720Z,0.95
2016-02-26T02:22:08.707Z,0.91
2016-02-26T02:23:08.725Z,0.85
2016-02-26T02:24:08.712Z,0.89
2016-02-26T02:25:08.700Z,0.89
2016-02-26T02:26:08.750Z,0.89
2016-02-26T02:27:08.705Z,0.89
2016-02-26T02:28:08.723Z,0.86
2016-02-26T02:29:08.695Z,0.95
2016-02-26T02:30:08.698Z,0.91
2016-02-26T02:31:08.700Z,0.92
2016-02-26T02:32:08.703Z,0.89
2016-02-26T02:33:08.705Z,0.91
2016-02-26T02:34:08.709Z,0.95
2016-02-26T02:35:08.695Z,0.94
2016-02-26T02:36:08.714Z,0.91
2016-02-26T02:37:08.716Z,0.92
2016-02-26T02:38:08.703Z,0.92
2016-02-26T02:39:08.690Z,0.91
2016-02-26T02:40:08.693Z,0.86
2016-02-26T02:41:08.727Z,0.94
2016-02-26T02:42:08.714Z,0.85
2016-02-26T02:43:08.702Z,0.88
2016-02-26T02:44:08.688Z,0.88
2016-02-26T02:45:08.690Z,0.89
2016-02-26T02:46:08.693Z,0.89
2016-02-26T02:47:08.697Z,0.94
2016-02-26T02:48:08.684Z,0.94
2016-02-26T02:49:08.702Z,0.92
2016-02-26T02:50:08.689Z,0.94
2016-02-26T02:51:08.692Z,0.86
2016-02-26T02:52:08.678Z,0.89
2016-02-26T02:53:08.697Z,0.89
2016-02-26T02:54:08.684Z,0.95
2016-02-26T02:55:08.687Z,0.91
2016-02-26T02:56:08.721Z,0.73
2016-02-26T02:57:08.692Z,0.78
2016-02-26T02:58:08.694Z,0.76
2016-02-26T02:59:08.697Z,0.74
2016-02-26T03:00:08.685Z,0.77
2016-02-26T03:01:08.687Z,0.73
2016-02-26T03:02:08.706Z,0.74
2016-02-26T03:03:08.692Z,0.76
2016-02-26T03:04:08.680Z,0.71
2016-02-26T03:05:08.683Z,0.7
2016-02-26T03:06:08.690Z,0.73
2016-02-26T03:07:08.677Z,0.7
2016-02-26T03:08:08.680Z,0.64
2016-02-26T03:09:08.730Z,0.7
2016-02-26T03:10:08.670Z,0.73
2016-02-26T03:11:08.672Z,0.71
2016-02-26T03:12:08.676Z,0.71
2016-02-26T03:13:08.678Z,0.71
2016-02-26T03:14:08.681Z,0.74
2016-02-26T03:15:08.684Z,0.74
2016-02-26T03:16:08.702Z,0.73
2016-02-26T03:17:08.674Z,0.77
2016-02-26T03:18:08.676Z,0.76
2016-02-26T03:19:08.679Z,0.74
2016-02-26T03:20:08.666Z,0.81
2016-02-26T03:21:08.669Z,0.7
2016-02-26T03:22:08.671Z,0.7
2016-02-26T03:23:08.674Z,0.67
2016-02-26T03:24:08.676Z,0.68
2016-02-26T03:25:08.664Z,0.68
2016-02-26T03:26:08.666Z,0.67
2016-02-26T03:27:08.701Z,0.64
2016-02-26T03:28:08.671Z,0.68
2016-02-26T03:29:08.659Z,0.67
2016-02-26T03:30:08.677Z,0.67
2016-02-26T03:31:08.665Z,0.61
2016-02-26T03:32:08.667Z,0.73
2016-02-26T03:33:08.654Z,0.73
2016-02-26T03:34:08.672Z,0.85
2016-02-26T03:35:08.675Z,0.91
2016-02-26T03:36:08.725Z,0.99
2016-02-26T03:37:08.664Z,1.04
2016-02-26T03:38:08.684Z,1.1
2016-02-26T03:39:08.655Z,1.14
2016-02-26T03:40:08.673Z,1.16
2016-02-26T03:41:08.660Z,1.18
2016-02-26T03:42:08.663Z,1.24
2016-02-26T03:43:08.697Z,1.21
2016-02-26T03:44:08.669Z,1.22
2016-02-26T03:45:08.671Z,1.3
2016-02-26T03:46:08.658Z,1.32
2016-02-26T03:47:08.660Z,1.28
2016-02-26T03:48:08.663Z,1.25
2016-02-26T03:49:08.650Z,1.28
2016-02-26T03:50:08.652Z,1.3
2016-02-26T03:51:08.656Z,1.38
2016-02-26T03:52:08.674Z,1.36
2016-02-26T03:53:08.660Z,1.31
2016-02-26T03:54:08.663Z,1.32
2016-02-26T03:55:08.666Z,1.34
2016-02-26T03:56:08.669Z,1.32
2016-02-26T03:57:08.657Z,1.31
2016-02-26T03:58:08.690Z,1.34
2016-02-26T03:59:08.662Z,1.31
2016-02-26T04:00:08.664Z,1.34
2016-02-26T04:01:08.651Z,1.32
2016-02-26T04:02:08.654Z,1.32
2016-02-26T04:03:08.641Z,1.32
2016-02-26T04:04:08.643Z,1.32
2016-02-26T04:05:08.646Z,1.36
2016-02-26T04:06:08.648Z,1.39
2016-02-26T04:07:08.651Z,1.4
2016-02-26T04:08:08.639Z,1.38
2016-02-26T04:09:08.641Z,1.32
2016-02-26T04:10:08.644Z,1.34
2016-02-26T04:11:08.662Z,1.36
2016-02-26T04:12:08.649Z,1.38
2016-02-26T04:13:08.652Z,1.31
2016-02-26T04:14:08.640Z,1.34
2016-02-26T04:15:08.658Z,1.32
2016-02-26T04:16:08.645Z,1.22
2016-02-26T04:17:08.663Z,1.28
2016-02-26T04:18:08.635Z,1.24
2016-02-26T04:19:08.652Z,1.14
2016-02-26T04:20:08.640Z,1.22
2016-02-26T04:21:08.643Z,1.18
2016-02-26T04:22:08.646Z,1.18
2016-02-26T04:23:08.648Z,1.16
2016-02-26T04:24:08.635Z,1.09
2016-02-26T04:25:08.637Z,1.07
2016-02-26T04:26:08.671Z,1.06
2016-02-26T04:27:08.675Z,1.03
2016-02-26T04:28:08.662Z,0.94
2016-02-26T04:29:08.633Z,0.73
2016-02-26T04:30:08.620Z,0.71
2016-02-26T04:31:08.623Z,0.76
2016-02-26T04:32:08.640Z,0.82
2016-02-26T04:33:08.629Z,0.76
2016-02-26T04:34:08.631Z,0.71
2016-02-26T04:35:08.634Z,0.76
2016-02-26T04:36:08.620Z,0.77
2016-02-26T04:37:08.639Z,0.78
2016-02-26T04:38:08.672Z,0.73
2016-02-26T04:39:08.644Z,0.73
2016-02-26T04:40:08.632Z,0.68
2016-02-26T04:41:08.634Z,0.73
2016-02-26T04:42:08.620Z,0.7
2016-02-26T04:43:08.623Z,0.73
2016-02-26T04:44:08.611Z,0.66
2016-02-26T04:45:08.614Z,0.7
2016-02-26T04:46:08.648Z,0.61
2016-02-26T04:47:08.619Z,0.61
2016-02-26T04:48:08.622Z,0.56
2016-02-26T04:49:08.624Z,0.45
2016-02-26T04:50:08.674Z,0.48
2016-02-26T04:51:08.613Z,0.51
2016-02-26T04:52:08.616Z,0.47
2016-02-26T04:53:08.636Z,0.39
2016-02-26T04:54:08.607Z,0.36
2016-02-26T04:55:08.609Z,0.34
2016-02-26T04:56:08.596Z,0.36
2016-02-26T04:57:08.614Z,0.3
2016-02-26T04:58:08.633Z,0.27
2016-02-26T04:59:08.621Z,0.27
2016-02-26T05:00:08.623Z,0.23
2016-02-26T05:01:08.610Z,0.23
2016-02-26T05:02:08.612Z,0.23
2016-02-26T05:03:08.615Z,0.18
2016-02-26T05:04:08.617Z,0.19
2016-02-26T05:05:08.438Z,0.19
2016-02-26T05:06:08.613Z,0.13
2016-02-26T05:07:08.616Z,0.13
2016-02-26T05:08:08.603Z,0.12
2016-02-26T05:09:08.606Z,0.08
2016-02-26T05:10:08.609Z,0.16
2016-02-26T05:11:08.596Z,0.11
2016-02-26T05:12:08.598Z,0.08
2016-02-26T05:13:08.601Z,0.05
2016-02-26T05:14:08.604Z,-0.03
2016-02-26T05:15:08.590Z,-0.03
2016-02-26T05:16:08.609Z,0
2016-02-26T05:17:08.439Z,-0.03
2016-02-26T05:18:08.599Z,0.02
2016-02-26T05:19:08.601Z,-0.02
2016-02-26T05:20:08.604Z,0
2016-02-26T05:21:08.606Z,-0.06
2016-02-26T05:22:08.609Z,-0.06
2016-02-26T05:23:08.612Z,-0.06
2016-02-26T05:24:08.583Z,0
2016-02-26T05:25:08.602Z,-0.03
2016-02-26T05:26:08.589Z,-0.07
2016-02-26T05:27:08.592Z,0
2016-02-26T05:28:08.594Z,-0.03
2016-02-26T05:29:08.613Z,-0.03
2016-02-26T05:30:08.583Z,-0.09
2016-02-26T05:31:08.587Z,-0.06
2016-02-26T05:32:08.589Z,-0.02
2016-02-26T05:33:08.591Z,0.06
2016-02-26T05:34:08.594Z,0.02
2016-02-26T05:35:08.597Z,0.13
2016-02-26T05:36:08.585Z,0.15
2016-02-26T05:37:08.588Z,0.19
2016-02-26T05:38:08.590Z,0.18
2016-02-26T05:39:08.577Z,0.2
2016-02-26T05:40:08.595Z,0.26
2016-02-26T05:41:08.582Z,0.24
2016-02-26T05:42:08.584Z,0.19
2016-02-26T05:43:08.587Z,0.12
2016-02-26T05:44:08.575Z,0.08
2016-02-26T05:45:08.578Z,0.09
2016-02-26T05:46:08.581Z,-0.05
2016-02-26T05:47:08.583Z,-0.05
2016-02-26T05:48:08.570Z,-0.05
2016-02-26T05:49:08.573Z,0.11
2016-02-26T05:50:08.592Z,0.12
2016-02-26T05:51:08.594Z,0.11
2016-02-26T05:52:08.565Z,0.26
2016-02-26T05:53:08.568Z,0.23
2016-02-26T05:54:08.571Z,0.2
2016-02-26T05:55:08.417Z,0.29
2016-02-26T05:56:08.575Z,0.31
2016-02-26T05:57:08.564Z,0.39
2016-02-26T05:58:08.566Z,0.39
2016-02-26T05:59:08.568Z,0.52
2016-02-26T06:00:08.571Z,0.56
2016-02-26T06:01:08.558Z,0.55
2016-02-26T06:02:08.561Z,0.51
2016-02-26T06:03:08.564Z,0.52
2016-02-26T06:04:08.566Z,0.48
2016-02-26T06:05:08.397Z,0.52
2016-02-26T06:06:08.555Z,0.44
2016-02-26T06:07:08.558Z,0.48
2016-02-26T06:08:08.561Z,0.48
2016-02-26T06:09:08.564Z,0.47
2016-02-26T06:10:08.566Z,0.52
2016-02-26T06:11:08.554Z,0.58
2016-02-26T06:12:08.556Z,0.52
2016-02-26T06:13:08.559Z,0.52
2016-02-26T06:14:08.562Z,0.45
2016-02-26T06:15:08.549Z,0.52
2016-02-26T06:16:08.552Z,0.48
2016-02-26T06:17:08.554Z,0.55
2016-02-26T06:18:08.557Z,0.59
2016-02-26T06:19:08.559Z,0.61
2016-02-26T06:20:08.547Z,0.7
2016-02-26T06:21:08.549Z,0.64
2016-02-26T06:22:08.553Z,0.67
2016-02-26T06:23:08.539Z,0.71
2016-02-26T06:24:08.542Z,0.73
2016-02-26T06:25:08.560Z,0.73
2016-02-26T06:26:08.563Z,0.67
2016-02-26T06:27:08.550Z,0.78
2016-02-26T06:28:08.552Z,0.92
2016-02-26T06:29:08.556Z,1.06
2016-02-26T06:30:08.542Z,1.22
2016-02-26T06:31:08.545Z,1.39
2016-02-26T06:32:08.532Z,1.5
2016-02-26T06:33:08.550Z,1.57
2016-02-26T06:34:08.537Z,1.79
2016-02-26T06:35:08.541Z,1.86
2016-02-26T06:36:08.543Z,2.07
2016-02-26T06:37:08.561Z,2.16
2016-02-26T06:38:08.532Z,2.25
2016-02-26T06:39:08.535Z,2.44
2016-02-26T06:40:08.537Z,2.54
2016-02-26T06:41:08.525Z,2.54
2016-02-26T06:42:08.540Z,2.69
2016-02-26T06:43:08.526Z,2.77
2016-02-26T06:44:08.528Z,2.83
2016-02-26T06:45:08.531Z,2.91
2016-02-26T06:46:08.535Z,3.09
2016-02-26T06:47:08.522Z,3.15
2016-02-26T06:48:08.539Z,3.33
2016-02-26T06:49:08.542Z,3.3
2016-02-26T06:50:08.545Z,3.3
2016-02-26T06:51:08.564Z,3.34
2016-02-26T06:52:08.550Z,3.49
2016-02-26T06:53:08.522Z,3.45
2016-02-26T06:54:08.525Z,3.61
2016-02-26T06:55:08.528Z,3.77
2016-02-26T06:56:08.546Z,3.95
2016-02-26T06:57:08.517Z,4.03
2016-02-26T06:58:08.535Z,4.2
2016-02-26T06:59:08.523Z,4.25
2016-02-26T07:00:08.526Z,4.42
2016-02-26T07:01:08.529Z,4.53
2016-02-26T07:02:08.531Z,4.68
2016-02-26T07:03:08.534Z,4.67
2016-02-26T07:04:08.536Z,4.82
2016-02-26T07:05:08.539Z,4.79
2016-02-26T07:06:08.542Z,4.92
2016-02-26T07:07:08.545Z,5.2
2016-02-26T07:08:08.532Z,5.38
2016-02-26T07:09:08.534Z,5.43
2016-02-26T07:10:08.536Z,5.33
2016-02-26T07:11:08.539Z,5.33
2016-02-26T07:12:08.543Z,5.46
2016-02-26T07:13:08.545Z,5.59
2016-02-26T07:14:08.564Z,5.84
2016-02-26T07:15:08.566Z,5.95
2016-02-26T07:16:08.537Z,6.01
2016-02-26T07:17:08.539Z,6.2
2016-02-26T07:18:08.542Z,6.39
2016-02-26T07:19:08.544Z,6.5
2016-02-26T07:20:08.548Z,6.72
2016-02-26T07:21:08.551Z,6.78
2016-02-26T07:22:08.553Z,6.89
2016-02-26T07:23:08.541Z,6.74
2016-02-26T07:24:08.558Z,6.78
2016-02-26T07:25:08.562Z,6.95
2016-02-26T07:26:08.564Z,6.92
2016-02-26T07:27:08.567Z,6.93
2016-02-26T07:28:08.569Z,7.11
2016-02-26T07:29:08.572Z,7.14
2016-02-26T07:30:08.574Z,7.19
2016-02-26T07:31:08.562Z,7.55
2016-02-26T07:32:08.564Z,7.7
2016-02-26T07:33:08.568Z,7.75
2016-02-26T07:34:08.571Z,7.7
2016-02-26T07:35:08.573Z,7.61
2016-02-26T07:36:08.560Z,7.64
2016-02-26T07:37:08.578Z,7.53
2016-02-26T07:38:08.581Z,7.56
2016-02-26T07:39:08.584Z,7.5
2016-02-26T07:40:08.587Z,7.61
2016-02-26T07:41:08.604Z,7.58
2016-02-26T07:42:08.592Z,7.96
2016-02-26T07:43:08.594Z,7.99
2016-02-26T07:44:08.597Z,8.08
2016-02-26T07:45:08.599Z,8.18
2016-02-26T07:46:08.603Z,8.39
2016-02-26T07:47:08.606Z,8.52
2016-02-26T07:48:08.608Z,8.36
2016-02-26T07:49:08.595Z,8.34
2016-02-26T07:50:08.613Z,8.45
2016-02-26T07:51:08.616Z,8.5
2016-02-26T07:52:08.633Z,8.68
2016-02-26T07:53:08.622Z,8.59
2016-02-26T07:54:08.624Z,8.56
2016-02-26T07:55:08.627Z,8.5
2016-02-26T07:56:08.644Z,8.38
2016-02-26T07:57:08.475Z,8.53
2016-02-26T07:58:08.634Z,8.56
2016-02-26T07:59:08.638Z,8.5
2016-02-26T08:00:08.641Z,8.49
2016-02-26T08:01:08.643Z,8.64
2016-02-26T08:02:08.646Z,8.87
2016-02-26T08:03:08.648Z,8.95
2016-02-26T08:04:08.651Z,9.02
2016-02-26T08:05:08.653Z,8.95
2016-02-26T08:06:08.656Z,9
2016-02-26T08:07:08.659Z,9.02
2016-02-26T08:08:08.662Z,9.3
2016-02-26T08:09:08.665Z,9.29
2016-02-26T08:10:08.667Z,9.3
2016-02-26T08:11:08.685Z,9.26
2016-02-26T08:12:08.673Z,9.26
2016-02-26T08:13:08.690Z,9.24
2016-02-26T08:14:08.678Z,9.11
2016-02-26T08:15:08.728Z,9
2016-02-26T08:16:08.698Z,8.96
2016-02-26T08:17:08.701Z,9.03
2016-02-26T08:18:08.704Z,8.9
2016-02-26T08:19:08.706Z,8.92
2016-02-26T08:20:08.709Z,8.86
2016-02-26T08:21:08.712Z,8.9
2016-02-26T08:22:08.714Z,9.24
2016-02-26T08:23:08.717Z,9.37
2016-02-26T08:24:08.720Z,9.58
2016-02-26T08:25:08.723Z,9.56
2016-02-26T08:26:08.725Z,9.63
2016-02-26T08:27:08.728Z,9.45
2016-02-26T08:28:08.731Z,9.27
2016-02-26T08:29:08.733Z,9.27
2016-02-26T08:30:08.752Z,9.33
2016-02-26T08:31:08.755Z,9.37
2016-02-26T08:32:08.741Z,9.54
2016-02-26T08:33:08.744Z,9.8
2016-02-26T08:34:08.747Z,9.92
2016-02-26T08:35:08.749Z,10.12
2016-02-26T08:36:08.752Z,10.43
2016-02-26T08:37:08.771Z,10.65
2016-02-26T08:38:08.757Z,10.8
2016-02-26T08:39:08.792Z,10.82
2016-02-26T08:40:08.778Z,10.87
2016-02-26T08:41:08.781Z,10.86
2016-02-26T08:42:08.784Z,10.83
2016-02-26T08:43:08.787Z,10.77
2016-02-26T08:44:08.789Z,10.9
2016-02-26T08:45:08.793Z,11.12
2016-02-26T08:46:08.811Z,11.08
2016-02-26T08:47:08.798Z,11
2016-02-26T08:48:08.816Z,11.13
2016-02-26T08:49:08.803Z,11.18
2016-02-26T08:50:08.822Z,10.8
2016-02-26T08:51:08.808Z,10.68
2016-02-26T08:52:08.811Z,10.64
2016-02-26T08:53:08.814Z,10.46
2016-02-26T08:54:08.816Z,10.15
2016-02-26T08:55:08.819Z,10.27
2016-02-26T08:56:08.853Z,10.25
2016-02-26T08:57:08.841Z,10.43
2016-02-26T08:58:08.843Z,10.34
2016-02-26T08:59:08.861Z,10.58
2016-02-26T09:00:08.849Z,10.76
2016-02-26T09:01:08.851Z,10.94
2016-02-26T09:02:08.854Z,10.89
2016-02-26T09:03:08.857Z,11
2016-02-26T09:04:08.860Z,10.82
2016-02-26T09:05:08.862Z,11.05
2016-02-26T09:06:08.865Z,10.83
2016-02-26T09:07:08.868Z,10.75
2016-02-26T09:08:08.870Z,10.75
2016-02-26T09:09:08.873Z,10.79
2016-02-26T09:10:08.891Z,10.86
2016-02-26T09:11:08.893Z,10.92
2016-02-26T09:12:08.881Z,10.86
2016-02-26T09:13:08.884Z,11.07
2016-02-26T09:14:08.917Z,11.43
2016-02-26T09:15:08.904Z,11.76
2016-02-26T09:16:08.892Z,11.91
2016-02-26T09:17:08.895Z,11.99
2016-02-26T09:18:08.912Z,11.88
2016-02-26T09:19:08.915Z,12
2016-02-26T09:20:08.918Z,12.25
2016-02-26T09:21:08.920Z,12.18
2016-02-26T09:22:08.908Z,12.07
2016-02-26T09:23:08.925Z,12.02
2016-02-26T09:24:08.928Z,12.07
2016-02-26T09:25:08.931Z,12.29
2016-02-26T09:26:08.933Z,12.23
2016-02-26T09:27:08.921Z,12.12
2016-02-26T09:28:08.939Z,12.08
2016-02-26T09:29:09.020Z,12.26
2016-02-26T09:30:08.944Z,12.11
2016-02-26T09:31:08.963Z,12.02
2016-02-26T09:32:08.950Z,11.99
2016-02-26T09:33:08.952Z,12.14
2016-02-26T09:34:08.955Z,11.99
2016-02-26T09:35:08.958Z,11.78
2016-02-26T09:36:08.960Z,11.41
2016-02-26T09:37:08.963Z,11.04
2016-02-26T09:38:08.965Z,11.02
2016-02-26T09:39:08.969Z,10.9
2016-02-26T09:40:08.971Z,10.68
2016-02-26T09:41:08.959Z,10.57
2016-02-26T09:42:08.977Z,10.2
2016-02-26T09:43:08.995Z,9.73
2016-02-26T09:44:08.857Z,9.44
2016-02-26T09:45:08.984Z,9.15
2016-02-26T09:46:09.051Z,8.54
2016-02-26T09:47:08.990Z,7.72
2016-02-26T09:48:08.992Z,7.07
2016-02-26T09:49:08.995Z,6.41
2016-02-26T09:50:08.998Z,5.98
2016-02-26T09:51:09.001Z,5.91
2016-02-26T09:52:09.004Z,5.67
2016-02-26T09:53:09.007Z,5.54
2016-02-26T09:54:09.009Z,5.4
2016-02-26T09:55:09.028Z,5.33
2016-02-26T09:56:09.031Z,5.26
2016-02-26T09:57:09.017Z,5.25
2016-02-26T09:58:09.020Z,5.13
2016-02-26T09:59:09.022Z,5.1
2016-02-26T10:00:09.088Z,5.07
2016-02-26T10:01:09.028Z,4.95
2016-02-26T10:02:09.030Z,4.89
2016-02-26T10:03:09.033Z,4.95
2016-02-26T10:04:09.036Z,5.04
2016-02-26T10:05:09.038Z,5.08
2016-02-26T10:06:09.057Z,5.04
2016-02-26T10:07:09.044Z,4.97
2016-02-26T10:08:09.046Z,5.02
2016-02-26T10:09:09.049Z,4.84
2016-02-26T10:10:09.051Z,4.74
2016-02-26T10:11:09.055Z,4.83
2016-02-26T10:12:09.042Z,4.78
2016-02-26T10:13:09.060Z,4.78
2016-02-26T10:14:09.094Z,4.82
2016-02-26T10:15:09.066Z,4.9
2016-02-26T10:16:09.068Z,4.9
2016-02-26T10:17:09.068Z,4.89
2016-02-26T10:18:09.075Z,4.94
2016-02-26T10:19:09.049Z,4.84
2016-02-26T10:20:09.043Z,4.74
2016-02-26T10:21:09.034Z,4.71
2016-02-26T10:22:09.010Z,4.7
2016-02-26T10:23:09.024Z,4.68
2016-02-26T10:24:09.022Z,4.74
2016-02-26T10:25:09.019Z,4.68
2016-02-26T10:26:09.065Z,4.74
2016-02-26T10:27:09.017Z,4.78
2016-02-26T10:28:09.003Z,4.82
2016-02-26T10:29:09.066Z,4.76
2016-02-26T10:30:09.020Z,4.74
2016-02-26T10:31:09.021Z,4.78
2016-02-26T10:32:09.008Z,4.79
2016-02-26T10:33:09.010Z,4.83
2016-02-26T10:34:09.013Z,4.87
2016-02-26T10:35:09.014Z,4.95
2016-02-26T10:36:09.032Z,4.95
2016-02-26T10:37:09.019Z,5.01
2016-02-26T10:38:09.021Z,5.05
2016-02-26T10:39:09.023Z,5.02
2016-02-26T10:40:09.041Z,5.08
2016-02-26T10:41:09.028Z,5.02
2016-02-26T10:42:09.031Z,5.04
2016-02-26T10:43:09.034Z,5.02
2016-02-26T10:44:09.051Z,4.94
2016-02-26T10:45:09.054Z,5.04
2016-02-26T10:46:09.042Z,5.05
2016-02-26T10:47:09.044Z,5.1
2016-02-26T10:48:09.047Z,5.05
2016-02-26T10:49:09.050Z,5.12
2016-02-26T10:50:09.052Z,4.98
2016-02-26T10:51:09.056Z,4.92
2016-02-26T10:52:09.058Z,4.76
2016-02-26T10:53:09.061Z,4.78
2016-02-26T10:54:09.063Z,4.78
2016-02-26T10:55:09.066Z,4.82
2016-02-26T10:56:09.083Z,5
2016-02-26T10:57:09.071Z,4.9
2016-02-26T10:58:09.074Z,4.98
2016-02-26T10:59:09.108Z,4.94
2016-02-26T11:00:09.063Z,4.94
2016-02-26T11:01:09.066Z,4.84
2016-02-26T11:02:09.085Z,4.89
2016-02-26T11:03:09.087Z,4.94
2016-02-26T11:04:09.074Z,4.9
2016-02-26T11:05:09.077Z,4.94
2016-02-26T11:06:09.079Z,5
2016-02-26T11:07:09.082Z,5.07
2016-02-26T11:08:09.100Z,5.2
2016-02-26T11:09:09.088Z,5.31
2016-02-26T11:10:09.075Z,5.34
2016-02-26T11:11:09.124Z,5.37
2016-02-26T11:12:09.095Z,5.41
2016-02-26T11:13:09.083Z,5.4
2016-02-26T11:14:09.101Z,5.4
2016-02-26T11:15:09.088Z,5.36
2016-02-26T11:16:09.122Z,5.37
2016-02-26T11:17:09.093Z,5.41
2016-02-26T11:18:09.096Z,5.4
2016-02-26T11:19:09.098Z,5.49
2016-02-26T11:20:09.117Z,5.4
2016-02-26T11:21:09.104Z,5.25
2016-02-26T11:22:09.122Z,5.16
2016-02-26T11:23:09.109Z,5.12
2016-02-26T11:24:09.111Z,5.08
2016-02-26T11:25:09.099Z,5.12
2016-02-26T11:26:09.117Z,5.23
2016-02-26T11:27:09.120Z,5.25
2016-02-26T11:28:09.107Z,5.22
2016-02-26T11:29:09.173Z,5.26
2016-02-26T11:30:09.128Z,5.28
2016-02-26T11:31:09.131Z,5.38
2016-02-26T11:32:09.118Z,5.4
2016-02-26T11:33:09.121Z,5.36
2016-02-26T11:34:09.124Z,5.37
2016-02-26T11:35:09.173Z,5.28
2016-02-26T11:36:09.144Z,5.26
2016-02-26T11:37:09.147Z,5.26
2016-02-26T11:38:09.135Z,5.29
2016-02-26T11:39:09.138Z,5.31
2016-02-26T11:40:09.155Z,5.37
2016-02-26T11:41:09.142Z,5.38
2016-02-26T11:42:09.146Z,5.37
2016-02-26T11:43:09.210Z,5.4
2016-02-26T11:44:09.151Z,5.44
2016-02-26T11:45:09.168Z,5.38
2016-02-26T11:46:09.140Z,5.26
2016-02-26T11:47:09.159Z,5.31
2016-02-26T11:48:09.162Z,5.29
2016-02-26T11:49:09.164Z,5.29
2016-02-26T11:50:09.166Z,5.33
2016-02-26T11:51:09.154Z,5.28
2016-02-26T11:52:09.172Z,5.26
2016-02-26T11:53:09.175Z,5.31
2016-02-26T11:54:09.162Z,5.34
2016-02-26T11:55:09.165Z,5.25
2016-02-26T11:56:09.183Z,5.28
2016-02-26T11:57:09.186Z,5.25
2016-02-26T11:58:09.172Z,5.22
2016-02-26T11:59:09.159Z,5.23
2016-02-26T12:00:09.178Z,5.22
2016-02-26T12:01:09.180Z,5.34
2016-02-26T12:02:09.167Z,5.28
2016-02-26T12:03:09.186Z,5.28
2016-02-26T12:04:09.188Z,5.29
2016-02-26T12:05:08.863Z,5.33
2016-02-26T12:06:09.225Z,5.29
2016-02-26T12:07:09.181Z,5.33
2016-02-26T12:08:09.183Z,5.37
2016-02-26T12:09:09.186Z,5.36
2016-02-26T12:10:09.204Z,5.31
2016-02-26T12:11:09.191Z,5.26
2016-02-26T12:12:09.194Z,5.25
2016-02-26T12:13:09.196Z,5.08
2016-02-26T12:14:09.199Z,5.07
2016-02-26T12:15:09.187Z,5.1
2016-02-26T12:16:09.205Z,5
2016-02-26T12:17:09.192Z,5.08
2016-02-26T12:18:09.195Z,5.15
2016-02-26T12:19:09.245Z,5.13
2016-02-26T12:20:09.215Z,5.07
2016-02-26T12:21:09.218Z,5.05
2016-02-26T12:22:09.221Z,5.13
2016-02-26T12:23:09.192Z,5.12
2016-02-26T12:24:09.211Z,5
2016-02-26T12:25:09.214Z,5.04
2016-02-26T12:26:09.092Z,4.95
2016-02-26T12:27:09.219Z,4.89
2016-02-26T12:28:09.222Z,4.9
2016-02-26T12:29:09.225Z,4.89
2016-02-26T12:30:09.227Z,4.79
2016-02-26T12:31:09.214Z,4.84
2016-02-26T12:32:09.217Z,4.78
2016-02-26T12:33:09.220Z,4.76
2016-02-26T12:34:09.066Z,4.7
2016-02-26T12:35:09.241Z,4.71
2016-02-26T12:36:09.227Z,4.74
2016-02-26T12:37:09.105Z,4.7
2016-02-26T12:38:09.233Z,4.74
2016-02-26T12:39:09.221Z,4.71
2016-02-26T12:40:09.238Z,4.68
2016-02-26T12:41:09.241Z,4.7
2016-02-26T12:42:09.229Z,4.75
2016-02-26T12:43:09.232Z,4.71
2016-02-26T12:44:09.093Z,4.82
2016-02-26T12:45:09.237Z,4.78
2016-02-26T12:46:09.239Z,4.68
2016-02-26T12:47:09.257Z,4.76
2016-02-26T12:48:09.245Z,4.78
2016-02-26T12:49:09.262Z,4.86
2016-02-26T12:50:09.250Z,4.7
2016-02-26T12:51:09.253Z,4.78
2016-02-26T12:52:09.240Z,4.84
2016-02-26T12:53:09.258Z,4.64
2016-02-26T12:54:09.682Z,4.71
2016-02-26T12:55:09.264Z,4.68
2016-02-26T12:56:09.250Z,4.68
2016-02-26T12:57:09.300Z,4.74
2016-02-26T12:58:09.256Z,4.7
2016-02-26T12:59:09.274Z,4.68
2016-02-26T13:00:09.261Z,4.74
2016-02-26T13:01:09.264Z,4.68
2016-02-26T13:02:09.250Z,4.83
2016-02-26T13:03:09.254Z,4.75
2016-02-26T13:04:09.271Z,4.82
2016-02-26T13:05:09.258Z,4.75
2016-02-26T13:06:09.277Z,4.78
2016-02-26T13:07:09.264Z,4.82
2016-02-26T13:08:09.266Z,4.79
2016-02-26T13:09:09.269Z,4.84
2016-02-26T13:10:09.288Z,4.76
2016-02-26T13:11:09.259Z,4.74
2016-02-26T13:12:09.277Z,4.79
2016-02-26T13:13:09.280Z,4.86
2016-02-26T13:14:09.267Z,4.84
2016-02-26T13:15:09.270Z,4.82
2016-02-26T13:16:09.273Z,4.87
2016-02-26T13:17:09.276Z,4.79
2016-02-26T13:18:09.278Z,4.86
2016-02-26T13:19:09.297Z,4.71